Time;durP1;ratioP1;P1;durP2;ratioP2;P2;SDS_P1;SDS_P2;PMS_P1;PMS_P2;Temp;Humidity;BMP_temperature;BMP_pressure;BME280_temperature;BME280_humidity;BME280_pressure;Samples;Min_cycle;Max_cycle;Signal;HPM_P1;HPM_P2
2022/01/18 00:01:37;;;;;;;1.30;1.30;;;;;;;2.28;57.00;100991.96;103618;1277;99411;-66
2022/01/18 00:04:07;;;;;;;1.40;1.40;;;;;;;2.28;57.00;100993.70;103478;1277;137829;-67
2022/01/18 00:06:37;;;;;;;1.30;1.30;;;;;;;2.29;57.15;100991.64;103662;1276;94695;-66
2022/01/18 00:09:06;;;;;;;1.40;1.40;;;;;;;2.28;56.57;100994.77;103724;1277;159146;-66
2022/01/18 00:11:41;;;;;;;1.30;1.30;;;;;;;2.25;56.93;100991.38;103369;1277;109104;-67
2022/01/18 00:14:22;;;;;;;1.40;1.40;;;;;;;2.23;56.98;100992.73;103556;1276;99388;-66
2022/01/18 00:19:28;;;;;;;1.30;1.30;;;;;;;2.27;57.09;101001.75;103459;1277;94843;-67
2022/01/18 00:24:29;;;;;;;1.20;1.20;;;;;;;2.37;56.74;101003.51;103520;1277;108845;-67
2022/01/18 00:26:57;;;;;;;1.20;1.20;;;;;;;2.39;56.95;101005.10;103597;1276;99343;-67
2022/01/18 00:29:27;;;;;;;1.30;1.30;;;;;;;2.43;56.77;101002.02;103484;1277;137332;-67
2022/01/18 00:32:16;;;;;;;1.40;1.40;;;;;;;2.43;56.65;100999.58;103596;1277;95403;-66
2022/01/18 00:34:46;;;;;;;1.30;1.30;;;;;;;2.39;56.85;101001.26;103451;1277;138161;-66
2022/01/18 00:37:27;;;;;;;1.30;1.30;;;;;;;2.36;57.47;101007.35;103537;1277;108435;-67
2022/01/18 00:39:55;;;;;;;1.40;1.40;;;;;;;2.27;57.49;101010.16;103487;1277;138222;-66
2022/01/18 00:42:23;;;;;;;1.40;1.40;;;;;;;2.28;57.87;101014.21;103532;1277;108759;-65
2022/01/18 00:44:51;;;;;;;1.30;1.30;;;;;;;2.29;57.85;101019.67;103593;1277;94859;-67
2022/01/18 00:47:19;;;;;;;1.40;1.40;;;;;;;2.29;57.85;101020.36;103497;1277;138110;-67
2022/01/18 00:49:49;;;;;;;1.30;1.30;;;;;;;2.33;57.83;101026.04;103645;1276;107865;-67
2022/01/18 00:52:19;;;;;;;1.30;1.30;;;;;;;2.29;57.77;101026.85;103513;1276;137838;-66
2022/01/18 00:54:47;;;;;;;1.30;1.30;;;;;;;2.25;58.03;101032.02;103544;1277;108788;-67
2022/01/18 00:57:14;;;;;;;1.20;1.20;;;;;;;2.20;58.16;101041.91;103529;1277;139459;-65
2022/01/18 00:59:44;;;;;;;1.40;1.40;;;;;;;2.17;58.79;101053.95;103580;1277;94326;-64
2022/01/18 01:02:17;;;;;;;1.30;1.30;;;;;;;2.16;58.91;101061.64;104195;1277;108351;-65
2022/01/18 01:04:48;;;;;;;1.30;1.30;;;;;;;2.10;58.67;101063.30;103574;1276;137996;-67
2022/01/18 01:07:19;;;;;;;1.30;1.30;;;;;;;2.10;59.22;101062.06;103578;1277;107903;-66
2022/01/18 01:09:48;;;;;;;1.30;1.30;;;;;;;2.10;59.02;101071.52;103769;1277;137970;-65
2022/01/18 01:12:18;;;;;;;1.30;1.30;;;;;;;2.02;58.74;101075.39;103615;1277;95529;-63
2022/01/18 01:14:48;;;;;;;1.50;1.50;;;;;;;1.95;59.22;101080.51;103651;1276;108960;-65
2022/01/18 01:36:38;;;;;;;1.40;1.40;;;;;;;1.62;59.84;101108.02;103562;1277;96605;-67
2022/01/18 01:42:06;;;;;;;1.40;1.40;;;;;;;1.51;59.71;101112.70;103929;1275;108357;-67
2022/01/18 01:44:48;;;;;;;1.40;1.40;;;;;;;1.51;60.05;101114.42;103587;1277;99634;-67
2022/01/18 01:47:20;;;;;;;1.40;1.40;;;;;;;1.52;59.83;101112.02;103528;1277;138726;-67
2022/01/18 01:49:50;;;;;;;1.30;1.30;;;;;;;1.55;60.02;101112.41;103670;1277;94805;-66
2022/01/18 01:52:20;;;;;;;1.40;1.40;;;;;;;1.57;59.85;101109.48;103718;1276;138665;-67
2022/01/18 01:54:48;;;;;;;1.50;1.50;;;;;;;1.53;59.71;101110.10;103769;1277;108607;-67
2022/01/18 01:57:16;;;;;;;1.50;1.50;;;;;;;1.49;59.49;101112.63;103660;1277;99336;-67
2022/01/18 01:59:44;;;;;;;1.50;1.50;;;;;;;1.42;59.90;101122.27;103603;1277;138459;-67
2022/01/18 02:02:12;;;;;;;1.40;1.40;;;;;;;1.40;59.99;101119.43;103563;1276;94873;-66
2022/01/18 02:04:41;;;;;;;1.40;1.40;;;;;;;1.38;60.11;101118.14;103905;1276;139718;-66
2022/01/18 02:07:08;;;;;;;1.60;1.60;;;;;;;1.32;60.15;101114.02;103612;1277;108724;-67
2022/01/18 02:09:36;;;;;;;1.50;1.50;;;;;;;1.26;60.20;101116.84;103504;1277;138882;-67
2022/01/18 02:12:04;;;;;;;1.50;1.50;;;;;;;1.22;60.26;101120.23;103558;1276;108827;-64
2022/01/18 02:14:33;;;;;;;1.40;1.40;;;;;;;1.15;60.27;101116.56;103597;1277;94489;-67
2022/01/18 02:22:34;;;;;;;1.50;1.50;;;;;;;1.04;60.54;101106.52;103537;1277;138195;-67
2022/01/18 02:25:02;;;;;;;1.60;1.60;;;;;;;0.93;60.73;101107.30;103529;1277;108763;-67
2022/01/18 02:27:30;;;;;;;1.50;1.50;;;;;;;0.85;61.38;101112.71;103440;1277;139126;-67
2022/01/18 02:29:58;;;;;;;1.50;1.50;;;;;;;0.75;61.38;101111.77;103586;1276;94705;-66
2022/01/18 02:32:25;;;;;;;1.50;1.50;;;;;;;0.74;61.98;101111.04;103661;1277;108387;-67
2022/01/18 02:34:53;;;;;;;1.70;1.70;;;;;;;0.73;62.05;101117.48;103378;1277;138359;-66
2022/01/18 02:37:21;;;;;;;1.60;1.60;;;;;;;0.69;62.18;101117.72;103564;1277;108767;-66
2022/01/18 02:39:48;;;;;;;1.60;1.60;;;;;;;0.74;62.10;101115.75;103460;1277;139054;-64
2022/01/18 02:42:23;;;;;;;1.70;1.70;;;;;;;0.73;62.30;101120.26;103504;1275;94333;-66
2022/01/18 02:44:52;;;;;;;1.50;1.50;;;;;;;0.72;61.83;101122.70;103665;1275;108370;-65
2022/01/18 02:47:21;;;;;;;1.60;1.60;;;;;;;0.73;61.98;101117.45;103511;1277;138176;-65
2022/01/18 02:49:49;;;;;;;1.50;1.50;;;;;;;0.77;62.05;101120.39;103794;1276;108699;-67
2022/01/18 02:52:17;;;;;;;1.50;1.50;;;;;;;0.75;62.34;101122.07;103585;1277;138245;-64
2022/01/18 02:54:45;;;;;;;1.60;1.60;;;;;;;0.70;62.24;101134.18;103545;1277;94311;-65
2022/01/18 02:57:23;;;;;;;1.70;1.70;;;;;;;0.65;62.13;101133.02;103746;1276;108422;-67
2022/01/18 03:00:07;;;;;;;1.70;1.70;;;;;;;0.58;62.58;101139.65;103475;1277;138567;-67
2022/01/18 03:05:21;;;;;;;1.50;1.50;;;;;;;0.63;62.80;101141.52;103474;1277;138218;-67
2022/01/18 03:07:49;;;;;;;1.50;1.50;;;;;;;0.62;62.76;101145.34;103558;1276;94730;-65
2022/01/18 03:10:17;;;;;;;1.70;1.70;;;;;;;0.62;62.99;101142.55;103494;1277;137725;-67
2022/01/18 03:12:46;;;;;;;1.70;1.70;;;;;;;0.72;62.87;101141.91;103577;1275;99349;-65
2022/01/18 03:15:14;;;;;;;1.60;1.60;;;;;;;0.81;62.42;101137.79;103575;1275;108859;-65
2022/01/18 03:17:42;;;;;;;1.60;1.60;;;;;;;0.82;62.45;101137.11;103480;1277;137982;-66
2022/01/18 03:20:13;;;;;;;1.60;1.60;;;;;;;0.80;62.41;101139.50;103567;1277;94310;-66
2022/01/18 03:22:41;;;;;;;1.60;1.60;;;;;;;0.74;62.63;101151.74;103512;1277;138243;-66
2022/01/18 03:25:27;;;;;;;1.60;1.60;;;;;;;0.74;62.29;101154.92;103538;1276;99704;-67
2022/01/18 03:28:04;;;;;;;1.50;1.50;;;;;;;0.76;62.33;101160.73;103432;1277;138139;-67
2022/01/18 03:30:36;;;;;;;1.50;1.50;;;;;;;0.70;62.59;101163.88;103505;1277;124431;-67
2022/01/18 03:33:06;;;;;;;1.60;1.60;;;;;;;0.69;62.62;101168.59;103561;1277;94466;-67
2022/01/18 03:35:34;;;;;;;1.70;1.70;;;;;;;0.68;62.71;101170.48;103517;1277;137956;-66
2022/01/18 03:38:02;;;;;;;1.60;1.60;;;;;;;0.65;62.94;101174.79;103554;1277;98143;-67
2022/01/18 03:40:30;;;;;;;1.60;1.60;;;;;;;0.63;62.75;101172.80;103507;1276;138047;-67
2022/01/18 03:42:59;;;;;;;1.70;1.70;;;;;;;0.62;62.76;101174.52;103634;1277;94388;-67
2022/01/18 03:45:39;;;;;;;1.70;1.70;;;;;;;0.56;63.01;101177.86;103705;1276;94789;-67
2022/01/18 03:48:13;;;;;;;1.80;1.80;;;;;;;0.52;63.35;101181.24;103617;1277;137870;-67
2022/01/18 03:50:42;;;;;;;1.50;1.50;;;;;;;0.52;63.14;101189.98;103770;1277;99785;-67
2022/01/18 03:53:11;;;;;;;1.50;1.50;;;;;;;0.59;63.01;101197.86;103416;1277;137960;-67
2022/01/18 03:55:39;;;;;;;1.70;1.70;;;;;;;0.64;62.30;101201.81;103606;1277;94402;-67
2022/01/18 03:58:06;;;;;;;1.70;1.70;;;;;;;0.62;63.04;101201.10;103494;1277;138147;-65
2022/01/18 04:00:34;;;;;;;1.80;1.80;;;;;;;0.63;62.92;101208.44;103597;1277;108601;-66
2022/01/18 04:03:02;;;;;;;1.70;1.70;;;;;;;0.68;63.04;101212.23;103590;1277;99379;-65
2022/01/18 04:05:31;;;;;;;1.60;1.60;;;;;;;0.62;63.00;101217.66;103473;1277;137954;-65
2022/01/18 04:07:59;;;;;;;1.70;1.70;;;;;;;0.60;63.13;101226.36;103599;1277;94332;-68
2022/01/18 04:10:26;;;;;;;1.70;1.70;;;;;;;0.57;63.53;101230.30;103414;1277;138105;-66
2022/01/18 04:12:56;;;;;;;1.50;1.50;;;;;;;0.56;63.40;101228.52;103532;1276;108475;-68
2022/01/18 04:15:24;;;;;;;1.50;1.50;;;;;;;0.48;63.43;101231.98;103639;1277;99366;-65
2022/01/18 04:26:05;;;;;;;1.60;1.60;;;;;;;0.43;63.70;101224.67;103624;1277;108488;-68
2022/01/18 04:28:43;;;;;;;1.60;1.60;;;;;;;0.42;63.87;101238.77;103455;1277;138011;-68
2022/01/18 04:31:10;;;;;;;1.70;1.70;;;;;;;0.39;63.76;101245.86;103629;1277;108740;-67
2022/01/18 04:33:39;;;;;;;1.60;1.60;;;;;;;0.37;63.93;101248.45;103577;1277;96672;-67
2022/01/18 04:36:08;;;;;;;1.50;1.50;;;;;;;0.44;63.69;101243.90;103543;1277;138249;-68
2022/01/18 04:38:37;;;;;;;1.60;1.60;;;;;;;0.39;63.89;101245.84;103697;1277;108392;-67
2022/01/18 04:41:09;;;;;;;1.70;1.70;;;;;;;0.34;64.16;101251.85;103461;1276;138401;-65
2022/01/18 04:49:15;;;;;;;1.70;1.70;;;;;;;0.43;64.01;101275.33;103626;1276;94304;-66
2022/01/18 04:51:44;;;;;;;1.70;1.70;;;;;;;0.52;64.04;101280.48;104186;1277;108531;-68
2022/01/18 04:54:13;;;;;;;1.70;1.70;;;;;;;0.57;63.68;101281.50;103780;1276;137573;-68
2022/01/18 04:59:10;;;;;;;1.60;1.60;;;;;;;0.67;63.40;101281.96;103447;1276;138099;-68
2022/01/18 05:01:40;;;;;;;1.50;1.50;;;;;;;0.65;63.38;101289.05;103594;1277;94350;-68
2022/01/18 05:04:09;;;;;;;1.80;1.80;;;;;;;0.67;63.49;101294.91;104002;1276;138384;-63
2022/01/18 05:06:37;;;;;;;1.60;1.60;;;;;;;0.63;63.53;101303.35;103667;1277;99501;-65
2022/01/18 05:09:08;;;;;;;1.60;1.60;;;;;;;0.67;63.24;101307.14;103558;1277;108770;-67
2022/01/18 05:11:44;;;;;;;1.40;1.40;;;;;;;0.67;63.55;101312.52;103468;1277;138099;-65
2022/01/18 05:14:30;;;;;;;1.50;1.50;;;;;;;0.67;63.62;101317.25;103566;1277;95082;-67
2022/01/18 05:17:32;;;;;;;1.60;1.60;;;;;;;0.66;63.93;101320.39;103407;1277;140714;-64
2022/01/18 05:22:59;;;;;;;1.60;1.60;;;;;;;0.67;63.94;101335.26;103195;1276;138455;-66
2022/01/18 05:25:29;;;;;;;1.50;1.50;;;;;;;0.76;64.12;101334.11;103495;1277;94688;-66
2022/01/18 05:27:57;;;;;;;1.70;1.70;;;;;;;0.72;64.09;101330.16;103332;1277;138038;-65
2022/01/18 05:30:27;;;;;;;1.50;1.50;;;;;;;0.74;64.10;101331.09;103469;1277;108713;-64
2022/01/18 05:32:56;;;;;;;1.50;1.50;;;;;;;0.80;64.41;101331.27;103492;1276;99450;-64
2022/01/18 05:35:24;;;;;;;1.50;1.50;;;;;;;0.81;64.13;101332.35;103438;1276;137610;-66
2022/01/18 05:37:51;;;;;;;1.60;1.60;;;;;;;0.72;63.79;101329.64;103486;1277;95378;-66
2022/01/18 05:40:19;;;;;;;1.90;1.90;;;;;;;0.72;64.25;101329.27;103325;1277;138614;-65
2022/01/18 05:42:48;;;;;;;1.50;1.50;;;;;;;0.77;64.05;101330.66;103496;1277;108490;-62
2022/01/18 05:45:16;;;;;;;1.50;1.50;;;;;;;0.76;64.15;101332.89;103496;1277;99407;-66
2022/01/18 05:47:44;;;;;;;1.60;1.60;;;;;;;0.72;64.53;101330.85;103396;1275;137430;-66
2022/01/18 05:50:14;;;;;;;1.60;1.60;;;;;;;0.69;64.42;101334.98;103466;1277;94823;-65
2022/01/18 05:52:42;;;;;;;1.70;1.70;;;;;;;0.77;64.34;101334.50;103385;1277;138282;-65
2022/01/18 05:55:10;;;;;;;1.60;1.60;;;;;;;0.80;64.17;101334.42;103360;1277;108972;-66
2022/01/18 05:57:38;;;;;;;1.50;1.50;;;;;;;0.81;64.07;101337.77;103425;1277;99534;-65
2022/01/18 06:00:19;;;;;;;1.60;1.60;;;;;;;0.77;63.99;101335.73;103334;1277;137944;-66
2022/01/18 06:08:16;;;;;;;1.50;1.50;;;;;;;0.77;64.49;101338.00;103387;1277;108375;-68
2022/01/18 06:10:44;;;;;;;1.70;1.70;;;;;;;0.74;64.54;101340.37;103202;1278;137753;-66
2022/01/18 06:13:13;;;;;;;1.70;1.70;;;;;;;0.73;64.81;101346.79;103408;1277;107890;-69
2022/01/18 06:15:41;;;;;;;1.70;1.70;;;;;;;0.74;64.91;101345.77;103327;1277;94312;-68
2022/01/18 06:18:09;;;;;;;1.60;1.60;;;;;;;0.85;64.61;101350.27;105786;1277;137718;-68
2022/01/18 06:20:40;;;;;;;1.50;1.50;;;;;;;0.94;64.31;101351.78;103252;1278;108462;-65
2022/01/18 06:23:08;;;;;;;1.70;1.70;;;;;;;1.01;64.09;101356.34;103472;1277;138291;-67
2022/01/18 06:25:37;;;;;;;1.50;1.50;;;;;;;0.95;64.28;101358.80;107483;1276;108466;-69
2022/01/18 06:28:05;;;;;;;1.70;1.70;;;;;;;0.87;64.24;101358.71;107463;1275;138555;-69
2022/01/18 06:30:33;;;;;;;1.40;1.40;;;;;;;0.92;64.22;101367.45;107169;1276;94266;-65
2022/01/18 06:33:01;;;;;;;1.60;1.60;;;;;;;0.96;64.31;101367.73;103477;1277;108385;-69
2022/01/18 06:35:30;;;;;;;1.50;1.50;;;;;;;0.96;64.32;101364.06;103281;1277;137765;-67
2022/01/18 06:37:58;;;;;;;1.60;1.60;;;;;;;0.98;64.08;101364.48;103361;1277;108814;-68
2022/01/18 06:40:26;;;;;;;1.40;1.40;;;;;;;1.01;64.19;101365.61;103401;1277;139206;-66
2022/01/18 06:42:54;;;;;;;1.50;1.50;;;;;;;0.96;64.56;101364.42;103542;1276;94706;-68
2022/01/18 06:45:22;;;;;;;1.60;1.60;;;;;;;0.94;64.38;101365.92;103840;1274;107255;-68
2022/01/18 06:47:49;;;;;;;2.00;2.00;;;;;;;0.90;64.72;101369.13;103223;1277;138093;-66
2022/01/18 06:50:17;;;;;;;1.60;1.60;;;;;;;0.95;64.56;101372.06;103340;1277;109028;-71
2022/01/18 06:52:45;;;;;;;1.60;1.60;;;;;;;0.99;64.54;101376.38;104384;1276;137598;-71
2022/01/18 06:55:13;;;;;;;1.40;1.40;;;;;;;1.00;64.36;101373.98;104564;1277;94585;-70
2022/01/18 06:57:41;;;;;;;1.50;1.50;;;;;;;1.03;64.67;101379.11;104511;1277;108080;-68
2022/01/18 07:00:14;;;;;;;1.50;1.50;;;;;;;1.02;64.09;101378.75;103515;1277;139919;-67
2022/01/18 07:02:43;;;;;;;1.40;1.40;;;;;;;0.97;64.45;101385.79;103847;1277;108040;-70
2022/01/18 07:05:14;;;;;;;1.50;1.50;;;;;;;0.97;64.84;101389.27;103790;1277;138458;-70
2022/01/18 07:07:42;;;;;;;1.50;1.50;;;;;;;0.96;64.71;101390.64;103538;1277;94244;-70
2022/01/18 07:10:10;;;;;;;1.60;1.60;;;;;;;1.00;64.84;101395.66;103615;1277;138488;-71
2022/01/18 07:12:38;;;;;;;1.50;1.50;;;;;;;1.02;64.71;101405.15;104441;1277;99987;-68
2022/01/18 07:15:09;;;;;;;1.50;1.50;;;;;;;1.04;64.63;101404.51;104298;1276;107754;-68
2022/01/18 07:17:38;;;;;;;1.60;1.60;;;;;;;1.04;64.98;101404.17;103259;1278;138193;-68
2022/01/18 07:20:06;;;;;;;1.60;1.60;;;;;;;1.10;64.72;101406.09;103606;1277;94741;-70
2022/01/18 07:22:35;;;;;;;1.50;1.50;;;;;;;1.19;64.86;101410.52;103710;1277;138968;-68
2022/01/18 07:25:10;;;;;;;1.50;1.50;;;;;;;1.22;64.61;101414.83;103583;1277;99626;-69
2022/01/18 07:27:39;;;;;;;1.50;1.50;;;;;;;1.27;64.41;101425.09;104532;1277;107771;-69
2022/01/18 07:30:08;;;;;;;1.40;1.40;;;;;;;1.27;64.60;101427.02;103471;1277;138473;-68
2022/01/18 07:32:36;;;;;;;1.40;1.40;;;;;;;1.37;64.56;101435.88;103641;1277;94666;-69
2022/01/18 07:35:05;;;;;;;1.40;1.40;;;;;;;1.44;64.52;101440.80;103497;1277;138489;-68
2022/01/18 07:37:36;;;;;;;1.40;1.40;;;;;;;1.45;64.30;101448.17;104468;1277;99169;-69
2022/01/18 07:40:07;;;;;;;1.50;1.50;;;;;;;1.45;64.39;101451.33;104241;1277;137671;-69
2022/01/18 07:42:36;;;;;;;1.50;1.50;;;;;;;1.49;64.39;101460.90;104519;1277;94675;-70
2022/01/18 07:45:04;;;;;;;1.30;1.30;;;;;;;1.53;64.27;101466.07;104323;1277;94732;-70
2022/01/18 07:47:58;;;;;;;1.40;1.40;;;;;;;1.59;64.30;101472.73;103663;1277;138151;-70
2022/01/18 07:50:28;;;;;;;1.50;1.50;;;;;;;1.65;64.09;101481.45;104036;1277;98502;-69
2022/01/18 07:52:56;;;;;;;1.50;1.50;;;;;;;1.65;64.11;101481.64;103513;1276;137982;-71
2022/01/18 07:55:24;;;;;;;1.40;1.40;;;;;;;1.69;64.14;101485.42;103364;1277;94428;-69
2022/01/18 07:57:57;;;;;;;1.30;1.30;;;;;;;1.79;64.15;101487.09;103480;1277;138155;-69
2022/01/18 08:00:31;;;;;;;1.40;1.40;;;;;;;1.85;63.74;101489.18;103833;1277;107817;-71
2022/01/18 08:02:59;;;;;;;1.40;1.40;;;;;;;1.91;64.01;101491.08;104420;1277;97629;-69
2022/01/18 08:05:28;;;;;;;1.50;1.50;;;;;;;1.93;63.94;101497.46;103467;1277;138223;-70
2022/01/18 08:07:55;;;;;;;1.40;1.40;;;;;;;2.03;63.86;101502.07;103560;1277;94752;-68
2022/01/18 08:10:30;;;;;;;1.30;1.30;;;;;;;2.08;63.54;101502.94;104305;1277;137952;-70
2022/01/18 08:13:01;;;;;;;1.30;1.30;;;;;;;2.15;63.56;101508.71;104840;1276;106053;-69
2022/01/18 08:15:37;;;;;;;1.30;1.30;;;;;;;2.14;63.54;101506.42;104002;1277;97311;-70
2022/01/18 08:18:12;;;;;;;1.30;1.30;;;;;;;2.23;63.48;101509.62;103405;1277;138352;-69
2022/01/18 08:20:40;;;;;;;1.30;1.30;;;;;;;2.24;63.34;101508.93;104076;1277;94406;-70
2022/01/18 08:23:09;;;;;;;1.20;1.20;;;;;;;2.27;63.26;101514.45;104227;1277;138244;-71
2022/01/18 08:25:39;;;;;;;1.30;1.30;;;;;;;2.27;63.29;101518.31;104427;1277;108419;-67
2022/01/18 08:28:07;;;;;;;1.30;1.30;;;;;;;2.36;63.28;101522.75;103504;1277;139398;-69
2022/01/18 08:30:35;;;;;;;1.20;1.20;;;;;;;2.45;63.31;101521.38;103585;1276;108480;-69
2022/01/18 08:33:02;;;;;;;1.20;1.20;;;;;;;2.46;62.93;101525.63;103458;1277;94512;-70
2022/01/18 08:35:31;;;;;;;1.20;1.20;;;;;;;2.44;63.06;101533.99;103488;1277;137613;-68
2022/01/18 08:37:59;;;;;;;1.30;1.30;;;;;;;2.42;62.89;101536.73;103573;1278;107274;-66
2022/01/18 08:40:27;;;;;;;1.30;1.30;;;;;;;2.45;63.05;101545.05;103461;1274;138411;-70
2022/01/18 08:42:55;;;;;;;1.20;1.20;;;;;;;2.50;63.13;101549.23;103563;1276;111279;-68
2022/01/18 08:45:22;;;;;;;1.20;1.20;;;;;;;2.57;63.07;101555.16;103618;1277;94315;-70
2022/01/18 08:47:50;;;;;;;1.20;1.20;;;;;;;2.58;63.02;101559.40;104304;1277;137954;-69
2022/01/18 08:50:19;;;;;;;1.30;1.30;;;;;;;2.57;62.93;101563.74;103569;1276;108497;-69
2022/01/18 08:52:51;;;;;;;1.30;1.30;;;;;;;2.61;62.82;101563.52;103586;1275;138943;-71
2022/01/18 08:55:19;;;;;;;1.30;1.30;;;;;;;2.62;62.89;101573.02;107512;1277;109053;-69
2022/01/18 08:57:48;;;;;;;1.20;1.20;;;;;;;2.71;62.98;101579.19;105991;1277;94246;-69
2022/01/18 09:00:18;;;;;;;1.30;1.30;;;;;;;2.77;62.72;101590.02;103421;1277;138023;-69
2022/01/18 09:02:46;;;;;;;1.20;1.20;;;;;;;2.87;62.57;101588.88;104215;1276;108384;-68
2022/01/18 09:05:14;;;;;;;1.20;1.20;;;;;;;3.01;62.42;101595.00;104016;1277;139312;-69
2022/01/18 09:07:42;;;;;;;1.20;1.20;;;;;;;3.04;62.08;101596.11;104370;1278;107750;-70
2022/01/18 09:10:11;;;;;;;1.20;1.20;;;;;;;3.08;62.06;101603.77;104086;1278;138184;-68
2022/01/18 09:12:39;;;;;;;1.30;1.30;;;;;;;3.09;61.93;101606.95;103495;1277;95306;-70
2022/01/18 09:15:10;;;;;;;1.30;1.30;;;;;;;3.14;61.86;101614.95;103469;1277;108710;-69
2022/01/18 09:17:39;;;;;;;1.10;1.10;;;;;;;3.27;61.72;101617.73;103562;1278;139526;-69
2022/01/18 09:20:10;;;;;;;1.10;1.10;;;;;;;3.42;61.37;101625.44;103514;1277;108374;-71
2022/01/18 09:22:41;;;;;;;1.10;1.10;;;;;;;3.51;60.94;101621.93;103623;1277;138099;-69
2022/01/18 09:25:13;;;;;;;1.10;1.10;;;;;;;3.47;60.73;101624.66;103816;1276;96105;-67
2022/01/18 09:27:42;;;;;;;1.20;1.20;;;;;;;3.55;61.18;101622.21;103735;1277;109736;-70
2022/01/18 09:30:12;;;;;;;1.50;1.50;;;;;;;3.95;60.25;101619.71;104637;1277;138885;-68
2022/01/18 09:32:42;;;;;;;0.90;0.90;;;;;;;5.36;58.15;101621.80;104326;1277;108411;-69
2022/01/18 09:35:11;;;;;;;0.80;0.80;;;;;;;6.55;54.01;101620.86;104853;1276;138613;-69
2022/01/18 09:37:39;;;;;;;1.00;1.00;;;;;;;7.55;52.22;101616.56;104368;1277;95122;-69
2022/01/18 09:40:08;;;;;;;0.80;0.80;;;;;;;8.47;49.42;101617.10;103415;1277;137930;-67
2022/01/18 09:42:39;;;;;;;0.50;0.50;;;;;;;9.17;47.78;101622.13;103639;1277;99399;-69
2022/01/18 09:45:13;;;;;;;0.50;0.50;;;;;;;8.84;47.32;101629.04;103517;1277;109009;-69
2022/01/18 09:47:43;;;;;;;0.60;0.60;;;;;;;8.73;46.60;101638.05;103583;1277;138003;-68
2022/01/18 09:50:14;;;;;;;0.70;0.70;;;;;;;8.52;47.02;101644.55;104333;1277;95409;-67
2022/01/18 09:52:42;;;;;;;0.60;0.60;;;;;;;9.52;45.89;101641.92;103429;1277;137786;-67
2022/01/18 09:55:10;;;;;;;0.50;0.50;;;;;;;9.65;45.01;101652.73;103525;1277;99660;-69
2022/01/18 09:57:38;;;;;;;0.50;0.50;;;;;;;9.09;46.23;101658.63;103585;1277;108624;-69
2022/01/18 10:00:07;;;;;;;0.50;0.50;;;;;;;8.53;46.68;101662.62;103359;1277;138064;-68
2022/01/18 10:02:38;;;;;;;0.50;0.50;;;;;;;7.97;47.63;101663.63;104099;1276;95163;-68
2022/01/18 10:05:26;;;;;;;0.60;0.60;;;;;;;7.40;48.81;101669.83;103719;1277;137759;-70
2022/01/18 10:08:02;;;;;;;0.70;0.70;;;;;;;6.84;50.27;101667.77;103519;1277;99503;-68
2022/01/18 10:10:39;;;;;;;0.70;0.70;;;;;;;6.40;51.28;101666.26;103751;1277;137876;-68
2022/01/18 10:13:09;;;;;;;0.80;0.80;;;;;;;6.08;52.27;101668.15;103436;1277;95709;-69
2022/01/18 10:15:36;;;;;;;0.80;0.80;;;;;;;5.77;53.17;101669.48;103569;1277;96649;-69
2022/01/18 10:18:07;;;;;;;0.90;0.90;;;;;;;5.51;54.06;101672.83;103460;1277;137871;-67
2022/01/18 10:20:49;;;;;;;0.80;0.80;;;;;;;5.24;54.67;101676.61;103559;1276;99799;-68
2022/01/18 10:23:23;;;;;;;0.80;0.80;;;;;;;5.00;55.31;101678.50;103478;1277;138176;-69
2022/01/18 10:25:52;;;;;;;0.90;0.90;;;;;;;4.92;55.65;101685.23;103941;1277;97466;-69
2022/01/18 10:28:34;;;;;;;0.90;0.90;;;;;;;4.88;56.13;101693.06;103309;1276;137980;-68
2022/01/18 10:31:06;;;;;;;0.90;0.90;;;;;;;4.82;56.33;101694.20;103516;1277;109661;-69
2022/01/18 10:33:47;;;;;;;0.90;0.90;;;;;;;4.78;56.35;101702.40;103512;1277;99345;-68
2022/01/18 10:36:16;;;;;;;0.90;0.90;;;;;;;4.70;56.74;101710.70;103332;1277;138582;-68
2022/01/18 10:38:45;;;;;;;0.80;0.80;;;;;;;4.63;57.05;101714.61;103495;1277;95813;-68
2022/01/18 10:41:27;;;;;;;1.00;1.00;;;;;;;4.62;56.97;101720.22;103406;1277;138187;-66
2022/01/18 10:44:13;;;;;;;1.00;1.00;;;;;;;4.68;57.20;101722.10;103539;1277;109799;-67
2022/01/18 10:46:53;;;;;;;0.90;0.90;;;;;;;5.39;56.36;101725.79;104333;1277;137896;-68
2022/01/18 10:49:31;;;;;;;0.90;0.90;;;;;;;6.95;53.27;101724.52;104112;1277;108880;-66
2022/01/18 10:52:20;;;;;;;0.70;0.70;;;;;;;8.42;50.47;101720.77;103422;1277;138868;-68
2022/01/18 10:54:56;;;;;;;0.60;0.60;;;;;;;9.12;46.81;101714.43;103512;1277;95448;-67
2022/01/18 10:57:30;;;;;;;0.60;0.60;;;;;;;8.15;48.17;101716.78;103917;1277;109872;-67
2022/01/18 11:00:10;;;;;;;0.70;0.70;;;;;;;7.35;49.50;101722.08;103416;1277;138004;-68
2022/01/18 11:02:39;;;;;;;0.80;0.80;;;;;;;6.72;50.95;101718.30;103504;1277;109073;-66
2022/01/18 11:05:18;;;;;;;0.80;0.80;;;;;;;6.29;52.26;101720.27;103370;1277;137927;-67
2022/01/18 11:07:48;;;;;;;0.80;0.80;;;;;;;5.93;53.18;101725.60;103619;1275;96624;-67
2022/01/18 11:10:18;;;;;;;0.80;0.80;;;;;;;5.61;53.86;101728.45;103735;1276;138283;-68
2022/01/18 11:12:56;;;;;;;0.90;0.90;;;;;;;5.29;54.70;101734.11;103550;1277;100043;-66
2022/01/18 11:15:27;;;;;;;0.90;0.90;;;;;;;5.03;55.38;101733.48;103560;1277;109129;-66
2022/01/18 11:18:01;;;;;;;0.90;0.90;;;;;;;4.88;56.13;101733.56;103514;1276;138331;-67
2022/01/18 11:20:31;;;;;;;0.90;0.90;;;;;;;4.82;56.53;101737.48;104365;1277;95151;-66
2022/01/18 11:22:59;;;;;;;1.00;1.00;;;;;;;4.70;56.69;101740.95;103455;1277;137782;-67
2022/01/18 11:25:29;;;;;;;0.90;0.90;;;;;;;4.66;56.87;101743.52;103553;1275;99343;-65
2022/01/18 11:27:58;;;;;;;1.00;1.00;;;;;;;4.64;57.03;101745.95;103369;1277;138048;-66
2022/01/18 11:30:31;;;;;;;1.10;1.10;;;;;;;4.50;57.27;101746.19;103556;1277;95619;-67
2022/01/18 11:33:02;;;;;;;1.00;1.00;;;;;;;4.43;57.70;101743.07;103609;1277;96169;-67
2022/01/18 11:35:41;;;;;;;0.90;0.90;;;;;;;4.45;57.91;101742.92;103720;1277;138937;-67
2022/01/18 11:38:31;;;;;;;0.90;0.90;;;;;;;4.41;57.75;101747.94;103489;1277;99347;-67
2022/01/18 11:40:59;;;;;;;1.00;1.00;;;;;;;4.37;57.81;101748.05;103458;1277;137700;-67
2022/01/18 11:43:42;;;;;;;1.00;1.00;;;;;;;4.31;58.13;101748.96;103415;1277;95754;-66
2022/01/18 11:46:28;;;;;;;1.00;1.00;;;;;;;4.31;58.22;101752.83;103371;1277;137938;-66
2022/01/18 11:49:04;;;;;;;1.00;1.00;;;;;;;4.33;58.36;101752.36;103603;1276;109714;-65
2022/01/18 11:51:35;;;;;;;1.00;1.00;;;;;;;4.38;58.53;101751.92;103513;1277;99620;-67
2022/01/18 11:57:23;;;;;;;1.20;1.20;;;;;;;4.52;58.51;101755.02;103494;1277;95943;-68
2022/01/18 12:00:12;;;;;;;1.10;1.10;;;;;;;4.54;58.29;101756.47;103388;1277;137794;-68
2022/01/18 12:02:43;;;;;;;1.00;1.00;;;;;;;4.42;58.29;101757.09;103440;1275;109707;-66
2022/01/18 12:05:38;;;;;;;1.00;1.00;;;;;;;4.37;58.63;101757.16;103545;1277;138278;-66
2022/01/18 12:08:06;;;;;;;1.00;1.00;;;;;;;4.44;58.80;101754.33;103533;1277;107812;-68
2022/01/18 12:10:34;;;;;;;1.00;1.00;;;;;;;4.44;58.70;101759.79;103499;1277;138912;-67
2022/01/18 12:13:11;;;;;;;1.00;1.00;;;;;;;4.50;58.78;101756.58;103526;1277;95157;-67
2022/01/18 12:15:46;;;;;;;1.00;1.00;;;;;;;4.54;58.71;101763.67;103559;1277;109730;-67
2022/01/18 12:18:23;;;;;;;1.10;1.10;;;;;;;4.44;58.69;101764.89;103952;1277;137610;-67
2022/01/18 12:20:56;;;;;;;1.00;1.00;;;;;;;4.33;58.92;101778.91;103472;1277;108842;-68
2022/01/18 12:23:30;;;;;;;1.00;1.00;;;;;;;4.32;59.10;101780.81;103388;1277;138660;-66
2022/01/18 12:26:28;;;;;;;1.00;1.00;;;;;;;4.32;59.21;101784.52;103342;1277;95165;-66
2022/01/18 12:29:21;;;;;;;1.00;1.00;;;;;;;4.34;59.34;101782.61;104032;1277;137762;-66
2022/01/18 12:39:49;;;;;;;1.00;1.00;;;;;;;4.43;59.25;101793.88;103484;1277;95425;-68
2022/01/18 12:45:13;;;;;;;1.00;1.00;;;;;;;4.39;59.18;101800.47;103577;1277;98228;-67
2022/01/18 12:47:45;;;;;;;1.10;1.10;;;;;;;4.37;59.43;101802.71;103473;1277;138305;-67
2022/01/18 12:50:19;;;;;;;1.10;1.10;;;;;;;4.33;59.60;101804.40;103804;1276;95649;-65
2022/01/18 12:53:09;;;;;;;1.00;1.00;;;;;;;4.36;59.82;101807.98;103239;1277;138720;-64